»·PEaware :: SKW4742 KPDX-KMFR

SKW4742 :: KPDX-KMFR

FLIGHT INFORMATION

Flight Status: Arrived
Operator:
SkyWest Airlines
More flights by this operator :: More flights under this callsign
Pilot: Skye D. (10623)
Aircraft: CANADAIR CL-600 CRJ-200
(CRJ2)
More flights by this aircraft type
Origin: KPDX Portland Intl
United States
Destination: KMFR Rogue Valley Intl-Medford
United States
More flights between these airports :: More routes between these airports
Route: EUG OED
File this flight plan on PilotEdge
Remarks:
Altitude:
(Current/Filed)
29,000ft
Speed:
(Current/Filed)
470kts
Departed: 13-Mar-18 01:13 PM
Arrived: 13-Mar-18 02:03 PM
Distance/Time
Traveled:
194nm/0:50
Distance/Time
To Go:
Arrived

Flight Plot

Page will automatically refresh every two minutes.

Flight plan parsing failed; only flown route is shown


Map Options




Map Legend


Flown Route
Filed Route
Departure Airport
Arrival Airport
Navaid (VOR, NDB)
Fix

Horizontal Profiles

Position Reports

Time Latitude Longitude Heading Altitude Ground
Speed
13-Mar-18 12:44 45.587011 -122.593140 39 34ft 0kts
13-Mar-18 12:45 45.587011 -122.593140 39 34ft 0kts
13-Mar-18 12:46 45.587011 -122.593140 39 34ft 0kts
13-Mar-18 12:47 45.587011 -122.593140 39 34ft 0kts
13-Mar-18 12:48 45.587011 -122.593140 39 34ft 0kts
13-Mar-18 12:49 45.587011 -122.593140 39 34ft 0kts
13-Mar-18 12:50 45.587011 -122.593140 39 34ft 0kts
13-Mar-18 12:51 45.587011 -122.593140 39 34ft 0kts
13-Mar-18 12:52 45.587011 -122.593140 39 34ft 0kts
13-Mar-18 12:53 45.587011 -122.593140 39 34ft 0kts
13-Mar-18 12:54 45.587011 -122.593140 39 34ft 0kts
13-Mar-18 12:55 45.587011 -122.593140 39 34ft 0kts
13-Mar-18 12:56 45.587011 -122.593140 39 34ft 0kts
13-Mar-18 12:57 45.587011 -122.593140 39 34ft 0kts
13-Mar-18 12:58 45.587011 -122.593140 39 34ft 0kts
13-Mar-18 12:59 45.586890 -122.593287 39 34ft 2kts
13-Mar-18 13:00 45.586548 -122.593698 39 34ft 1kts
13-Mar-18 13:01 45.586218 -122.593625 305 34ft 1kts
13-Mar-18 13:02 45.586209 -122.593608 306 34ft 0kts
13-Mar-18 13:03 45.586209 -122.593608 306 34ft 0kts
13-Mar-18 13:04 45.586209 -122.593608 306 34ft 0kts
13-Mar-18 13:05 45.586408 -122.593990 306 34ft 10kts
13-Mar-18 13:06 45.587360 -122.598232 297 34ft 18kts
13-Mar-18 13:07 45.589260 -122.603217 296 34ft 17kts
13-Mar-18 13:08 45.589977 -122.603915 9 34ft 0kts
13-Mar-18 13:09 45.592080 -122.600777 47 34ft 22kts
13-Mar-18 13:10 45.594054 -122.598089 44 34ft 8kts
13-Mar-18 13:11 45.594818 -122.596951 54 34ft 10kts
13-Mar-18 13:12 45.593480 -122.592199 118 34ft 83kts
13-Mar-18 13:13 45.580536 -122.558125 119 1429ft 146kts
13-Mar-18 13:14 45.559194 -122.524373 175 3587ft 158kts
13-Mar-18 13:15 45.525495 -122.544356 203 5370ft 199kts
13-Mar-18 13:16 45.485803 -122.574154 204 6871ft 248kts
13-Mar-18 13:17 45.443515 -122.599549 199 9338ft 242kts
13-Mar-18 13:18 45.398897 -122.622378 196 10911ft 264kts
13-Mar-18 13:19 45.346184 -122.647980 195 11776ft 305kts
13-Mar-18 13:20 45.282722 -122.678527 193 13609ft 314kts
13-Mar-18 13:21 45.212651 -122.711870 193 15625ft 314kts
13-Mar-18 13:22 45.138489 -122.747216 194 17642ft 311kts
13-Mar-18 13:23 45.062223 -122.783508 193 19249ft 315kts
13-Mar-18 13:24 44.987996 -122.818689 193 20569ft 320kts
13-Mar-18 13:25 44.917043 -122.852229 193 21694ft 325kts
13-Mar-18 13:26 44.841771 -122.887708 193 22823ft 329kts
13-Mar-18 13:27 44.767466 -122.922639 193 23835ft 333kts
13-Mar-18 13:28 44.701253 -122.953675 193 24735ft 335kts
13-Mar-18 13:29 44.629436 -122.987277 193 25511ft 339kts
13-Mar-18 13:30 44.542547 -123.027810 193 26374ft 343kts
13-Mar-18 13:31 44.453809 -123.069073 193 27156ft 347kts
13-Mar-18 13:32 44.363230 -123.111055 193 27866ft 351kts
13-Mar-18 13:33 44.272675 -123.152890 193 28496ft 354kts
13-Mar-18 13:34 44.181892 -123.194676 194 28885ft 363kts
13-Mar-18 13:35 44.089225 -123.216320 172 28893ft 368kts
13-Mar-18 13:36 43.992455 -123.197840 172 28880ft 372kts
13-Mar-18 13:37 43.897257 -123.179496 172 28879ft 374kts
13-Mar-18 13:38 43.806052 -123.161981 172 27793ft 367kts
13-Mar-18 13:39 43.714177 -123.144362 172 26443ft 360kts
13-Mar-18 13:40 43.621130 -123.126607 172 25170ft 353kts
13-Mar-18 13:41 43.534326 -123.110080 172 23988ft 347kts
13-Mar-18 13:42 43.453812 -123.094776 172 22665ft 339kts
13-Mar-18 13:43 43.373391 -123.079542 172 21432ft 331kts
13-Mar-18 13:44 43.293507 -123.064455 172 20245ft 324kts
13-Mar-18 13:45 43.210210 -123.048771 172 19045ft 317kts
13-Mar-18 13:46 43.138768 -123.038992 175 16844ft 309kts
13-Mar-18 13:47 43.064490 -123.031517 175 14339ft 287kts
13-Mar-18 13:48 43.000596 -123.024631 175 12693ft 247kts
13-Mar-18 13:49 42.939107 -123.016491 175 10893ft 222kts
13-Mar-18 13:50 42.889026 -123.008642 175 9080ft 220kts
13-Mar-18 13:51 42.833189 -122.999789 175 7945ft 202kts
13-Mar-18 13:52 42.790331 -122.993141 175 7955ft 235kts
13-Mar-18 13:53 42.741324 -122.986629 184 7938ft 233kts
13-Mar-18 13:54 42.690148 -122.993559 185 6998ft 226kts
13-Mar-18 13:55 42.640731 -122.999527 173 6943ft 194kts
13-Mar-18 13:56 42.594216 -122.973276 159 5871ft 186kts
13-Mar-18 13:57 42.546941 -122.957661 169 5006ft 183kts
13-Mar-18 13:58 42.498265 -122.938168 161 4560ft 183kts
13-Mar-18 13:59 42.451639 -122.914610 153 3106ft 171kts
13-Mar-18 14:00 42.413388 -122.893523 151 1990ft 143kts
13-Mar-18 14:01 42.384035 -122.878056 158 1358ft 136kts
13-Mar-18 14:02 42.369455 -122.871404 250 1339ft 7kts
13-Mar-18 14:03 42.369177 -122.873368 249 1339ft 2kts
13-Mar-18 14:04 42.369133 -122.873528 249 1339ft 0kts

Navigation Log

Ident Type
Flight plan parsing failed, navigation log unavailable